Time;durP1;ratioP1;P1;durP2;ratioP2;P2;SDS_P1;SDS_P2;PMS_P1;PMS_P2;Temp;Humidity;BMP_temperature;BMP_pressure;BME280_temperature;BME280_humidity;BME280_pressure;Samples;Min_cycle;Max_cycle;Signal;HPM_P1;HPM_P2
2024/02/22 00:00:56;;;;;;;7.32;1.90;;;;;;;;;;4994925;28;20046;-78
2024/02/22 00:03:23;;;;;;;4.60;1.63;;;;;;;;;;4994170;28;20053;-78
2024/02/22 00:05:50;;;;;;;7.10;1.90;;;;;;;;;;4994605;28;20310;-78
2024/02/22 00:08:16;;;;;;;5.07;2.00;;;;;;;;;;4993950;28;20054;-78
2024/02/22 00:10:43;;;;;;;3.90;1.58;;;;;;;;;;4994295;28;20081;-78
2024/02/22 00:13:10;;;;;;;10.40;1.75;;;;;;;;;;4993893;28;20046;-79
2024/02/22 00:15:37;;;;;;;12.88;2.05;;;;;;;;;;4994473;28;20433;-77
2024/02/22 00:18:04;;;;;;;6.65;1.25;;;;;;;;;;4993748;28;20069;-77
2024/02/22 00:20:31;;;;;;;6.28;1.15;;;;;;;;;;4994315;28;20046;-78
2024/02/22 00:22:58;;;;;;;9.40;2.67;;;;;;;;;;4994299;28;20065;-78
2024/02/22 00:25:25;;;;;;;7.88;1.75;;;;;;;;;;4993761;28;20129;-79
2024/02/22 00:27:52;;;;;;;11.85;2.42;;;;;;;;;;4994202;28;20485;-77
2024/02/22 00:30:20;;;;;;;17.40;2.85;;;;;;;;;;4993909;28;20038;-78
2024/02/22 00:32:47;;;;;;;29.40;2.17;;;;;;;;;;4994382;28;20050;-79
2024/02/22 00:35:14;;;;;;;20.67;2.05;;;;;;;;;;4993770;28;20046;-79
2024/02/22 00:37:41;;;;;;;52.47;2.42;;;;;;;;;;4993953;28;20053;-78
2024/02/22 00:40:09;;;;;;;59.63;3.63;;;;;;;;;;4993497;28;20077;-78
2024/02/22 00:42:36;;;;;;;42.75;3.15;;;;;;;;;;4976893;28;20043;-78
2024/02/22 00:45:03;;;;;;;28.02;2.33;;;;;;;;;;4993833;28;20515;-78
2024/02/22 00:47:30;;;;;;;34.30;2.67;;;;;;;;;;4976279;28;20479;-78
2024/02/22 00:49:57;;;;;;;24.42;2.67;;;;;;;;;;4993938;28;20049;-78
2024/02/22 00:52:23;;;;;;;47.63;3.90;;;;;;;;;;4993041;28;20425;-78
2024/02/22 00:54:50;;;;;;;20.75;2.30;;;;;;;;;;4976360;28;20110;-78
2024/02/22 00:57:17;;;;;;;8.10;1.45;;;;;;;;;;4993276;28;20047;-79
2024/02/22 00:59:44;;;;;;;10.38;2.22;;;;;;;;;;4993671;28;20374;-79
2024/02/22 01:02:10;;;;;;;7.28;2.10;;;;;;;;;;4993138;28;20048;-79
2024/02/22 01:04:37;;;;;;;13.85;1.98;;;;;;;;;;4993788;28;20053;-79
2024/02/22 01:07:04;;;;;;;10.52;1.60;;;;;;;;;;4993184;28;20046;-79
2024/02/22 01:09:31;;;;;;;9.05;1.20;;;;;;;;;;4993437;28;20078;-79
2024/02/22 01:11:58;;;;;;;14.77;2.10;;;;;;;;;;4993599;28;20062;-79
2024/02/22 01:14:25;;;;;;;9.10;1.70;;;;;;;;;;4992929;28;20080;-79
2024/02/22 01:16:52;;;;;;;10.00;1.38;;;;;;;;;;4993444;28;20769;-78
2024/02/22 01:19:18;;;;;;;8.95;1.40;;;;;;;;;;4993130;28;20133;-79
2024/02/22 01:21:46;;;;;;;9.45;1.77;;;;;;;;;;4993414;28;20050;-79
2024/02/22 01:24:12;;;;;;;6.57;1.60;;;;;;;;;;4992992;28;20038;-79
2024/02/22 01:26:39;;;;;;;11.93;1.55;;;;;;;;;;4993582;28;20046;-79
2024/02/22 01:29:06;;;;;;;6.85;1.27;;;;;;;;;;4975696;28;20046;-79
2024/02/22 01:31:33;;;;;;;11.63;1.10;;;;;;;;;;4993387;28;20074;-79
2024/02/22 01:34:00;;;;;;;8.70;1.40;;;;;;;;;;4993156;28;20575;-78
2024/02/22 01:36:27;;;;;;;16.30;1.27;;;;;;;;;;4992886;28;20549;-79
2024/02/22 01:38:53;;;;;;;16.33;1.40;;;;;;;;;;4993280;28;20053;-79
2024/02/22 01:41:20;;;;;;;24.33;1.92;;;;;;;;;;4992671;28;20049;-79
2024/02/22 01:43:47;;;;;;;17.23;2.42;;;;;;;;;;4993146;28;20043;-79
2024/02/22 01:46:15;;;;;;;12.35;1.60;;;;;;;;;;4992537;28;20074;-79
2024/02/22 01:48:42;;;;;;;19.80;1.60;;;;;;;;;;4993327;28;20042;-78
2024/02/22 01:51:09;;;;;;;11.93;1.30;;;;;;;;;;4992687;28;20281;-79
2024/02/22 01:53:36;;;;;;;26.60;2.85;;;;;;;;;;4993101;28;20046;-79
2024/02/22 01:56:03;;;;;;;60.67;2.53;;;;;;;;;;4993175;28;20046;-79
2024/02/22 01:58:34;;;;;;;31.50;3.28;;;;;;;;;;4992781;28;20042;-78
2024/02/22 02:01:03;;;;;;;75.88;4.20;;;;;;;;;;4993237;28;20030;-79
2024/02/22 02:03:31;;;;;;;67.70;4.40;;;;;;;;;;4975586;28;20050;-77
2024/02/22 02:05:59;;;;;;;103.17;5.10;;;;;;;;;;4994493;28;20047;-79
2024/02/22 02:08:26;;;;;;;48.15;4.22;;;;;;;;;;4996250;28;20281;-79
2024/02/22 02:10:52;;;;;;;48.72;4.25;;;;;;;;;;4996633;28;20045;-77
2024/02/22 02:13:19;;;;;;;75.88;5.78;;;;;;;;;;4996409;28;20436;-78
2024/02/22 02:15:46;;;;;;;37.90;5.20;;;;;;;;;;4996836;28;20045;-79
2024/02/22 02:18:13;;;;;;;25.08;3.83;;;;;;;;;;4996168;28;20043;-78
2024/02/22 02:20:58;;;;;;;37.28;3.58;;;;;;;;;;4996831;28;20046;-77
2024/02/22 02:23:44;;;;;;;32.72;2.70;;;;;;;;;;4996194;28;20046;-79
2024/02/22 02:26:11;;;;;;;58.92;4.35;;;;;;;;;;4995938;28;20386;-78
2024/02/22 02:28:38;;;;;;;61.97;3.40;;;;;;;;;;4996431;28;20062;-79
2024/02/22 02:31:05;;;;;;;48.85;3.35;;;;;;;;;;4995872;28;20054;-79
2024/02/22 02:33:32;;;;;;;15.40;2.10;;;;;;;;;;4996065;28;20053;-79
2024/02/22 02:35:59;;;;;;;12.20;2.35;;;;;;;;;;4996684;28;20070;-78
2024/02/22 02:38:26;;;;;;;10.35;1.35;;;;;;;;;;4995840;28;20046;-79
2024/02/22 02:40:53;;;;;;;8.07;1.45;;;;;;;;;;4996221;28;20062;-79
2024/02/22 02:43:19;;;;;;;16.33;1.25;;;;;;;;;;4995733;28;20133;-79
2024/02/22 02:45:46;;;;;;;22.65;1.73;;;;;;;;;;4996022;28;20042;-79
2024/02/22 02:48:15;;;;;;;43.40;2.30;;;;;;;;;;4995370;28;20043;-78
2024/02/22 02:50:42;;;;;;;43.17;2.40;;;;;;;;;;4996076;28;20101;-78
2024/02/22 02:53:08;;;;;;;37.45;2.28;;;;;;;;;;4995526;28;20076;-78
2024/02/22 02:55:35;;;;;;;33.50;1.70;;;;;;;;;;4995767;28;20501;-79
2024/02/22 02:58:05;;;;;;;53.00;2.30;;;;;;;;;;4996030;28;20046;-79
2024/02/22 03:00:32;;;;;;;68.30;2.67;;;;;;;;;;4995576;28;20133;-79
2024/02/22 03:02:59;;;;;;;64.10;3.05;;;;;;;;;;4995850;28;20069;-78
2024/02/22 03:05:28;;;;;;;59.22;3.08;;;;;;;;;;4995431;28;20343;-79
2024/02/22 03:07:55;;;;;;;60.20;2.25;;;;;;;;;;4995714;28;20042;-80
2024/02/22 03:10:22;;;;;;;99.15;3.78;;;;;;;;;;4993649;28;20046;-80
2024/02/22 03:12:49;;;;;;;97.50;3.50;;;;;;;;;;4995701;28;20053;-80
2024/02/22 03:15:15;;;;;;;112.38;5.03;;;;;;;;;;4995287;28;20034;-79
2024/02/22 03:17:42;;;;;;;151.20;4.93;;;;;;;;;;4994246;28;20039;-79
2024/02/22 03:20:12;;;;;;;221.77;5.78;;;;;;;;;;4994981;28;20533;-80
2024/02/22 03:22:41;;;;;;;196.60;7.60;;;;;;;;;;4995421;28;20053;-79
2024/02/22 03:25:09;;;;;;;268.65;9.68;;;;;;;;;;4995011;28;20038;-79
2024/02/22 03:27:35;;;;;;;275.08;9.30;;;;;;;;;;4995416;28;20129;-80
2024/02/22 03:30:08;;;;;;;236.32;8.27;;;;;;;;;;4995496;28;20043;-79
2024/02/22 03:32:36;;;;;;;236.43;8.15;;;;;;;;;;4994223;28;20046;-80
2024/02/22 03:35:06;;;;;;;183.80;8.07;;;;;;;;;;4995188;28;20042;-80
2024/02/22 03:37:33;;;;;;;97.78;4.53;;;;;;;;;;4994913;28;20096;-79
2024/02/22 03:40:00;;;;;;;108.75;4.63;;;;;;;;;;4995041;28;20057;-79
2024/02/22 03:42:30;;;;;;;140.35;4.75;;;;;;;;;;4994579;28;20066;-79
2024/02/22 03:44:57;;;;;;;153.95;6.10;;;;;;;;;;4995000;28;20042;-80
2024/02/22 03:47:24;;;;;;;119.43;4.55;;;;;;;;;;4994281;28;20054;-79
2024/02/22 03:49:50;;;;;;;119.75;4.43;;;;;;;;;;4995043;28;20034;-79
2024/02/22 03:52:17;;;;;;;115.40;5.60;;;;;;;;;;4994436;28;20050;-79
2024/02/22 03:54:44;;;;;;;66.38;3.83;;;;;;;;;;4994830;28;20046;-80
2024/02/22 03:57:11;;;;;;;55.80;3.05;;;;;;;;;;4994217;28;20054;-78
2024/02/22 03:59:37;;;;;;;38.63;2.92;;;;;;;;;;4994964;28;20042;-78
2024/02/22 04:02:04;;;;;;;15.02;2.22;;;;;;;;;;4994447;28;20105;-78
2024/02/22 04:04:31;;;;;;;11.05;1.80;;;;;;;;;;4994694;28;20057;-78
2024/02/22 04:06:58;;;;;;;22.42;2.13;;;;;;;;;;4994480;28;20042;-80
2024/02/22 04:09:25;;;;;;;17.27;1.77;;;;;;;;;;4993812;28;20042;-78
2024/02/22 04:11:52;;;;;;;68.25;3.63;;;;;;;;;;4977192;28;20049;-79
2024/02/22 04:14:18;;;;;;;56.95;3.40;;;;;;;;;;4993955;28;20049;-78
2024/02/22 04:16:45;;;;;;;77.15;3.55;;;;;;;;;;4994439;28;20130;-77
2024/02/22 04:19:12;;;;;;;57.95;3.75;;;;;;;;;;4992896;28;20121;-78
2024/02/22 04:21:41;;;;;;;54.58;3.13;;;;;;;;;;4994208;28;20477;-78
2024/02/22 04:24:08;;;;;;;57.30;2.90;;;;;;;;;;4993654;28;20042;-79
2024/02/22 04:26:51;;;;;;;38.00;2.95;;;;;;;;;;4994318;28;20057;-79
2024/02/22 04:29:18;;;;;;;35.88;2.55;;;;;;;;;;4993288;28;20054;-78
2024/02/22 04:31:46;;;;;;;15.73;2.38;;;;;;;;;;4994069;28;20489;-78
2024/02/22 04:34:13;;;;;;;11.77;2.22;;;;;;;;;;4993668;28;20048;-78
2024/02/22 04:36:41;;;;;;;19.08;2.50;;;;;;;;;;4994211;28;20054;-78
2024/02/22 04:39:13;;;;;;;14.00;2.42;;;;;;;;;;4993569;28;20042;-78
2024/02/22 04:41:40;;;;;;;8.27;2.35;;;;;;;;;;4993989;28;20054;-78
2024/02/22 04:44:07;;;;;;;5.40;1.67;;;;;;;;;;4993336;28;20053;-78
2024/02/22 04:46:35;;;;;;;11.90;2.47;;;;;;;;;;4993818;28;20056;-77
2024/02/22 04:49:04;;;;;;;9.82;2.08;;;;;;;;;;4993680;28;20394;-78
2024/02/22 04:51:32;;;;;;;7.25;1.58;;;;;;;;;;4993552;28;20505;-78
2024/02/22 04:54:02;;;;;;;6.97;1.45;;;;;;;;;;4993773;28;20050;-80
2024/02/22 04:56:29;;;;;;;9.23;1.70;;;;;;;;;;4993529;28;20053;-79
2024/02/22 04:58:56;;;;;;;9.23;1.30;;;;;;;;;;4993673;28;20429;-78
2024/02/22 05:01:27;;;;;;;13.40;2.00;;;;;;;;;;4993088;28;20042;-79
2024/02/22 05:03:54;;;;;;;12.32;2.33;;;;;;;;;;4993801;28;20073;-79
2024/02/22 05:06:21;;;;;;;16.95;2.53;;;;;;;;;;4992841;28;20038;-78
2024/02/22 05:08:48;;;;;;;12.32;1.80;;;;;;;;;;4993306;28;20450;-79
2024/02/22 05:11:15;;;;;;;7.47;1.60;;;;;;;;;;4993043;28;20038;-79
2024/02/22 05:13:42;;;;;;;7.55;1.50;;;;;;;;;;4976455;28;20050;-78
2024/02/22 05:16:10;;;;;;;9.50;1.33;;;;;;;;;;4992912;28;20042;-78
2024/02/22 05:18:40;;;;;;;8.65;1.05;;;;;;;;;;4993430;28;20173;-79
2024/02/22 05:21:07;;;;;;;12.07;1.55;;;;;;;;;;4993204;28;20124;-79
2024/02/22 05:23:34;;;;;;;16.48;2.33;;;;;;;;;;4993590;28;20069;-79
2024/02/22 05:26:01;;;;;;;18.60;2.53;;;;;;;;;;4993332;28;20121;-79
2024/02/22 05:28:28;;;;;;;28.13;3.47;;;;;;;;;;4991877;28;20046;-79
2024/02/22 05:30:54;;;;;;;22.77;4.15;;;;;;;;;;4993485;28;20042;-79
2024/02/22 05:33:21;;;;;;;32.85;4.30;;;;;;;;;;4993025;28;20049;-77
2024/02/22 05:35:48;;;;;;;23.58;3.85;;;;;;;;;;4993514;28;20057;-79
2024/02/22 05:38:15;;;;;;;19.55;4.10;;;;;;;;;;4992634;28;20055;-84
2024/02/22 05:40:42;;;;;;;17.67;3.65;;;;;;;;;;4976826;28;20039;-79
2024/02/22 05:43:10;;;;;;;32.22;4.25;;;;;;;;;;4996896;28;20053;-80
2024/02/22 05:45:44;;;;;;;41.42;4.80;;;;;;;;;;4997187;28;20057;-78
2024/02/22 05:48:11;;;;;;;34.13;5.57;;;;;;;;;;4996532;28;20046;-79
2024/02/22 05:50:38;;;;;;;32.03;5.80;;;;;;;;;;4997114;28;20105;-79
2024/02/22 05:53:05;;;;;;;34.08;4.88;;;;;;;;;;4996310;28;20145;-78
2024/02/22 05:55:32;;;;;;;23.27;6.07;;;;;;;;;;4996571;28;20042;-78
2024/02/22 05:57:59;;;;;;;33.15;4.10;;;;;;;;;;4996193;28;20039;-79
2024/02/22 06:00:26;;;;;;;14.15;3.05;;;;;;;;;;4995950;28;20133;-78
2024/02/22 06:02:53;;;;;;;17.33;2.28;;;;;;;;;;4996070;28;20104;-79
2024/02/22 06:05:20;;;;;;;17.45;2.55;;;;;;;;;;4995799;28;20137;-78
2024/02/22 06:07:46;;;;;;;9.43;1.83;;;;;;;;;;4994929;28;20105;-79
2024/02/22 06:10:13;;;;;;;9.80;1.55;;;;;;;;;;4995519;28;20042;-80
2024/02/22 06:12:42;;;;;;;14.77;1.58;;;;;;;;;;4996177;28;20042;-80
2024/02/22 06:15:10;;;;;;;8.82;1.42;;;;;;;;;;4993495;28;20763;-79
2024/02/22 06:17:37;;;;;;;12.23;1.45;;;;;;;;;;4995771;28;20380;-80
2024/02/22 06:20:05;;;;;;;8.43;1.70;;;;;;;;;;4996151;28;20056;-80
2024/02/22 06:22:33;;;;;;;7.72;1.20;;;;;;;;;;4995388;28;20053;-79
2024/02/22 06:25:01;;;;;;;10.10;1.50;;;;;;;;;;4995763;28;20377;-79
2024/02/22 06:27:28;;;;;;;8.80;1.40;;;;;;;;;;4994623;28;20046;-80
2024/02/22 06:29:55;;;;;;;11.80;1.55;;;;;;;;;;4994717;28;20054;-79
2024/02/22 06:32:24;;;;;;;7.57;1.20;;;;;;;;;;4993585;28;20066;-79
2024/02/22 06:34:51;;;;;;;;;;;;;;;;;;4994803;28;20046;-79
2024/02/22 06:37:18;;;;;;;11.13;1.50;;;;;;;;;;4994008;28;20336;-79
2024/02/22 06:39:45;;;;;;;14.73;1.83;;;;;;;;;;4994014;28;20058;-79
2024/02/22 06:42:13;;;;;;;9.82;1.85;;;;;;;;;;4993393;28;20440;-80
2024/02/22 06:44:44;;;;;;;10.35;1.48;;;;;;;;;;4994405;28;20065;-79
2024/02/22 06:47:13;;;;;;;8.32;1.10;;;;;;;;;;4995971;28;20470;-79
2024/02/22 06:49:41;;;;;;;12.25;1.90;;;;;;;;;;4995820;28;20046;-79
2024/02/22 06:52:07;;;;;;;23.27;2.15;;;;;;;;;;4995030;28;20038;-80
2024/02/22 06:54:35;;;;;;;14.48;2.83;;;;;;;;;;4995121;28;20062;-79
2024/02/22 06:57:05;;;;;;;22.00;2.25;;;;;;;;;;4995906;28;20457;-79
2024/02/22 06:59:32;;;;;;;24.27;3.42;;;;;;;;;;4995781;28;20046;-80
2024/02/22 07:01:59;;;;;;;27.60;3.08;;;;;;;;;;4996044;28;20069;-79
2024/02/22 07:04:26;;;;;;;19.48;2.63;;;;;;;;;;4994978;28;20046;-87
2024/02/22 07:06:53;;;;;;;27.40;3.33;;;;;;;;;;4978489;28;20429;-80
2024/02/22 07:09:21;;;;;;;28.65;3.53;;;;;;;;;;4995065;28;20498;-80
2024/02/22 07:11:48;;;;;;;21.77;3.15;;;;;;;;;;4995702;28;20385;-80
2024/02/22 07:14:16;;;;;;;22.75;4.13;;;;;;;;;;4995323;28;20042;-80
2024/02/22 07:16:44;;;;;;;30.92;4.55;;;;;;;;;;4995778;28;20425;-79
2024/02/22 07:19:11;;;;;;;;;;;;;;;;;;4995473;28;20417;-79
2024/02/22 07:21:38;;;;;;;38.13;4.93;;;;;;;;;;4995432;28;19922;-80
2024/02/22 07:24:05;;;;;;;42.55;4.30;;;;;;;;;;4994844;28;20046;-80
2024/02/22 07:26:32;;;;;;;25.70;3.75;;;;;;;;;;4995098;28;20433;-79
2024/02/22 07:28:59;;;;;;;32.83;4.10;;;;;;;;;;4995814;28;20050;-80
2024/02/22 07:31:26;;;;;;;36.90;3.92;;;;;;;;;;4994945;28;20043;-79
2024/02/22 07:33:53;;;;;;;44.22;4.80;;;;;;;;;;4995137;28;20500;-80
2024/02/22 07:36:21;;;;;;;41.08;4.80;;;;;;;;;;4994791;28;20469;-80
2024/02/22 07:38:48;;;;;;;47.97;4.70;;;;;;;;;;4995266;28;20133;-80
2024/02/22 07:41:17;;;;;;;41.38;4.30;;;;;;;;;;4994642;28;20046;-79
2024/02/22 07:43:46;;;;;;;51.83;5.85;;;;;;;;;;4994900;28;20493;-80
2024/02/22 07:46:14;;;;;;;42.72;5.75;;;;;;;;;;4994553;28;20550;-79
2024/02/22 07:48:41;;;;;;;50.45;5.65;;;;;;;;;;4994886;28;20481;-80
2024/02/22 07:51:09;;;;;;;44.55;6.07;;;;;;;;;;4977530;28;20049;-80
2024/02/22 07:53:37;;;;;;;37.15;4.82;;;;;;;;;;4994872;28;20097;-79
2024/02/22 07:56:05;;;;;;;39.80;5.17;;;;;;;;;;4994600;28;20049;-79
2024/02/22 07:58:56;;;;;;;42.20;5.47;;;;;;;;;;4994775;28;20531;-80
2024/02/22 08:01:23;;;;;;;46.50;5.65;;;;;;;;;;4994163;28;20421;-80
2024/02/22 08:03:50;;;;;;;50.63;4.88;;;;;;;;;;4994003;28;20038;-80
2024/02/22 08:06:17;;;;;;;58.00;5.55;;;;;;;;;;4994113;28;20042;-80
2024/02/22 08:08:45;;;;;;;51.55;5.35;;;;;;;;;;4994425;28;20038;-80
2024/02/22 08:11:11;;;;;;;59.85;6.65;;;;;;;;;;4993889;28;20042;-80
2024/02/22 08:13:38;;;;;;;50.80;6.15;;;;;;;;;;4994423;28;20046;-80
2024/02/22 08:16:08;;;;;;;59.60;7.47;;;;;;;;;;4993812;28;20101;-80
2024/02/22 08:18:36;;;;;;;50.45;6.28;;;;;;;;;;4994523;28;20054;-80
2024/02/22 08:21:03;;;;;;;47.65;6.05;;;;;;;;;;4994386;28;20042;-80
2024/02/22 08:23:30;;;;;;;56.57;6.10;;;;;;;;;;4993800;28;20046;-80
2024/02/22 08:25:58;;;;;;;65.82;7.53;;;;;;;;;;4994228;28;20057;-80
2024/02/22 08:28:27;;;;;;;65.43;6.80;;;;;;;;;;4993927;28;20057;-79
2024/02/22 08:30:54;;;;;;;;;;;;;;;;;;4994673;28;20124;-80
2024/02/22 08:33:24;;;;;;;72.35;7.18;;;;;;;;;;4993625;28;20254;-79
2024/02/22 08:35:54;;;;;;;56.05;7.55;;;;;;;;;;4993997;28;20050;-80
2024/02/22 08:38:21;;;;;;;55.33;7.20;;;;;;;;;;4993751;28;20041;-80
2024/02/22 08:40:48;;;;;;;57.40;7.38;;;;;;;;;;4993966;28;20046;-79
2024/02/22 08:43:14;;;;;;;47.42;5.88;;;;;;;;;;4993601;28;20043;-80
2024/02/22 08:45:41;;;;;;;52.22;5.80;;;;;;;;;;4993936;28;20093;-78
2024/02/22 08:48:08;;;;;;;42.13;5.68;;;;;;;;;;4993566;28;20048;-80
2024/02/22 08:50:36;;;;;;;39.20;5.28;;;;;;;;;;4993861;28;20077;-79
2024/02/22 08:53:04;;;;;;;46.80;5.20;;;;;;;;;;4992702;28;20057;-78
2024/02/22 08:55:31;;;;;;;51.70;6.18;;;;;;;;;;4993579;28;20393;-80
2024/02/22 08:57:58;;;;;;;36.28;5.15;;;;;;;;;;4993956;28;20038;-79
2024/02/22 09:00:27;;;;;;;36.83;5.97;;;;;;;;;;4993122;28;20050;-80
2024/02/22 09:02:54;;;;;;;40.83;4.82;;;;;;;;;;4993586;28;20089;-80
2024/02/22 09:05:21;;;;;;;54.03;5.43;;;;;;;;;;4993095;28;20042;-80
2024/02/22 09:07:49;;;;;;;44.65;4.50;;;;;;;;;;4993672;28;20042;-80
2024/02/22 09:10:17;;;;;;;45.88;4.82;;;;;;;;;;4975800;28;20058;-80
2024/02/22 09:12:44;;;;;;;34.78;4.53;;;;;;;;;;4993522;28;20058;-80
2024/02/22 09:15:11;;;;;;;31.73;4.43;;;;;;;;;;4992904;28;20049;-79
2024/02/22 09:17:38;;;;;;;34.95;4.95;;;;;;;;;;4993440;28;20049;-79
2024/02/22 09:20:06;;;;;;;50.30;5.50;;;;;;;;;;4991955;28;20042;-78
2024/02/22 09:22:33;;;;;;;28.45;3.80;;;;;;;;;;4992593;28;20470;-80
2024/02/22 09:25:00;;;;;;;16.38;3.10;;;;;;;;;;4992813;28;20039;-79
2024/02/22 09:27:29;;;;;;;22.48;2.75;;;;;;;;;;4992402;28;20058;-81
2024/02/22 09:29:58;;;;;;;29.92;3.28;;;;;;;;;;4990100;28;20046;-79
2024/02/22 09:32:24;;;;;;;39.83;5.78;;;;;;;;;;4992145;28;20100;-79
2024/02/22 09:34:52;;;;;;;60.72;5.85;;;;;;;;;;4992659;28;20041;-78
2024/02/22 09:37:19;;;;;;;62.67;6.28;;;;;;;;;;4992402;28;20038;-78
2024/02/22 09:39:48;;;;;;;66.78;6.57;;;;;;;;;;4992719;28;20042;-78
2024/02/22 09:42:15;;;;;;;46.67;4.95;;;;;;;;;;4990158;28;20130;-79
2024/02/22 09:44:43;;;;;;;31.75;4.45;;;;;;;;;;4992917;28;20043;-79
2024/02/22 09:47:10;;;;;;;35.92;4.53;;;;;;;;;;4992461;28;20046;-79
2024/02/22 09:49:39;;;;;;;36.38;4.88;;;;;;;;;;4992778;28;20042;-79
2024/02/22 09:52:06;;;;;;;42.95;4.32;;;;;;;;;;4992524;28;20038;-79
2024/02/22 09:54:33;;;;;;;33.70;4.32;;;;;;;;;;4989702;28;20038;-79
2024/02/22 09:57:00;;;;;;;49.00;5.03;;;;;;;;;;4992768;28;20125;-79
2024/02/22 09:59:27;;;;;;;34.78;4.60;;;;;;;;;;4992172;28;20513;-79
2024/02/22 10:01:56;;;;;;;47.25;5.75;;;;;;;;;;4992725;28;20047;-78
2024/02/22 10:04:23;;;;;;;50.13;5.70;;;;;;;;;;4992145;28;20525;-79
2024/02/22 10:06:59;;;;;;;44.80;5.32;;;;;;;;;;4992790;28;20041;-79
2024/02/22 10:09:27;;;;;;;49.90;6.63;;;;;;;;;;4991842;28;20052;-79
2024/02/22 10:11:54;;;;;;;49.35;5.68;;;;;;;;;;4992540;28;20042;-77
2024/02/22 10:14:21;;;;;;;50.38;6.40;;;;;;;;;;4991096;28;20045;-79
2024/02/22 10:16:48;;;;;;;57.63;6.05;;;;;;;;;;4992628;28;20406;-79
2024/02/22 10:19:15;;;;;;;68.80;7.70;;;;;;;;;;4992526;28;20054;-79
2024/02/22 10:21:45;;;;;;;25.00;3.72;;;;;;;;;;4989981;28;20038;-79
2024/02/22 10:24:13;;;;;;;27.30;3.05;;;;;;;;;;4990948;28;20065;-79
2024/02/22 10:26:40;;;;;;;18.38;2.67;;;;;;;;;;4993155;28;20038;-79
2024/02/22 10:29:11;;;;;;;11.90;2.75;;;;;;;;;;4995451;28;20039;-78
2024/02/22 10:31:48;;;;;;;13.73;2.17;;;;;;;;;;4993600;28;20606;-78
2024/02/22 10:34:15;;;;;;;16.98;2.00;;;;;;;;;;4995317;28;20145;-79
2024/02/22 10:36:42;;;;;;;17.48;3.55;;;;;;;;;;4995847;28;20039;-78
2024/02/22 10:39:10;;;;;;;18.58;2.13;;;;;;;;;;4995224;28;20053;-79
2024/02/22 10:41:37;;;;;;;12.30;1.77;;;;;;;;;;4993154;28;20046;-79
2024/02/22 10:44:04;;;;;;;17.00;1.85;;;;;;;;;;4995951;28;20134;-79
2024/02/22 10:46:38;;;;;;;19.15;1.80;;;;;;;;;;4996245;28;20054;-78
2024/02/22 10:49:13;;;;;;;14.70;1.98;;;;;;;;;;4995178;28;20038;-77
2024/02/22 10:51:41;;;;;;;18.02;1.63;;;;;;;;;;4993464;28;20042;-78
2024/02/22 10:54:10;;;;;;;20.35;3.13;;;;;;;;;;4995221;28;20097;-78
2024/02/22 10:56:47;;;;;;;14.35;1.98;;;;;;;;;;4992923;28;20073;-78
2024/02/22 10:59:20;;;;;;;15.05;2.03;;;;;;;;;;4995031;28;20133;-78
2024/02/22 11:01:49;;;;;;;15.48;2.33;;;;;;;;;;4995495;28;20137;-78
2024/02/22 11:04:16;;;;;;;15.60;2.05;;;;;;;;;;4994528;28;20045;-78
2024/02/22 11:06:46;;;;;;;18.65;2.33;;;;;;;;;;4995514;28;20042;-79
2024/02/22 11:09:20;;;;;;;13.75;1.77;;;;;;;;;;4994560;28;20126;-78
2024/02/22 11:11:48;;;;;;;18.17;2.40;;;;;;;;;;4992631;28;20061;-78
2024/02/22 11:14:27;;;;;;;;;;;;;;;;;;4995151;28;20038;-79
2024/02/22 11:16:59;;;;;;;17.13;1.60;;;;;;;;;;4993954;28;19977;-78
2024/02/22 11:19:28;;;;;;;12.68;1.85;;;;;;;;;;4994730;28;20047;-78
2024/02/22 11:21:55;;;;;;;13.60;1.83;;;;;;;;;;4995166;28;20130;-78
2024/02/22 11:24:26;;;;;;;9.90;2.05;;;;;;;;;;4994490;28;20367;-78
2024/02/22 11:26:55;;;;;;;14.30;1.70;;;;;;;;;;4995077;28;20045;-78
2024/02/22 11:29:30;;;;;;;14.88;1.85;;;;;;;;;;4994459;28;20058;-78
2024/02/22 11:32:00;;;;;;;20.35;1.85;;;;;;;;;;4994960;28;20355;-78
2024/02/22 11:34:28;;;;;;;14.02;1.80;;;;;;;;;;4974668;28;20054;-78
2024/02/22 11:37:16;;;;;;;11.38;1.33;;;;;;;;;;4994778;28;20432;-79
2024/02/22 11:39:44;;;;;;;24.05;2.30;;;;;;;;;;4993111;28;20077;-79
2024/02/22 11:42:15;;;;;;;17.27;1.48;;;;;;;;;;4994337;28;20046;-78
2024/02/22 11:44:43;;;;;;;10.32;1.48;;;;;;;;;;4977424;28;20061;-78
2024/02/22 11:47:13;;;;;;;16.27;1.50;;;;;;;;;;4994323;28;20424;-78
2024/02/22 11:49:43;;;;;;;12.23;1.48;;;;;;;;;;4994567;28;20043;-79
2024/02/22 11:52:14;;;;;;;10.07;1.65;;;;;;;;;;4991795;28;20093;-79
2024/02/22 11:54:42;;;;;;;14.43;1.00;;;;;;;;;;4994604;28;20046;-78
2024/02/22 11:57:08;;;;;;;3.28;0.50;;;;;;;;;;4991626;28;20046;-78
2024/02/22 11:59:38;;;;;;;12.35;1.38;;;;;;;;;;4994398;28;20046;-78
2024/02/22 12:02:06;;;;;;;6.90;1.02;;;;;;;;;;4993720;28;20065;-78
2024/02/22 12:04:34;;;;;;;9.02;1.15;;;;;;;;;;4994271;28;20552;-79
2024/02/22 12:07:01;;;;;;;10.98;0.88;;;;;;;;;;4994820;28;20101;-79
2024/02/22 12:09:29;;;;;;;16.08;1.67;;;;;;;;;;4994004;28;20047;-78
2024/02/22 12:11:56;;;;;;;16.42;1.65;;;;;;;;;;4994937;28;20050;-79
2024/02/22 12:14:23;;;;;;;13.07;1.48;;;;;;;;;;4993907;28;20042;-79
2024/02/22 12:16:54;;;;;;;18.05;2.47;;;;;;;;;;4993479;28;20046;-78
2024/02/22 12:19:21;;;;;;;15.13;2.17;;;;;;;;;;4994551;28;20093;-78
2024/02/22 12:21:49;;;;;;;19.10;2.20;;;;;;;;;;4994578;28;20043;-79
2024/02/22 12:24:16;;;;;;;23.60;2.40;;;;;;;;;;4993252;28;20050;-79
2024/02/22 12:26:50;;;;;;;14.85;1.75;;;;;;;;;;4991421;28;20038;-79
2024/02/22 12:29:18;;;;;;;12.15;1.88;;;;;;;;;;4993626;28;20080;-78
2024/02/22 12:31:45;;;;;;;19.05;1.58;;;;;;;;;;4993826;28;20126;-78
2024/02/22 12:34:15;;;;;;;16.80;1.75;;;;;;;;;;5001787;28;20035;-78
2024/02/22 12:36:45;;;;;;;24.17;2.20;;;;;;;;;;4991187;28;20042;-78
2024/02/22 12:39:12;;;;;;;21.02;2.20;;;;;;;;;;4993319;28;20062;-78
2024/02/22 12:41:38;;;;;;;14.52;2.80;;;;;;;;;;4998519;28;20038;-78
2024/02/22 12:44:05;;;;;;;17.48;2.67;;;;;;;;;;4994963;28;20042;-77
2024/02/22 12:46:33;;;;;;;17.58;2.25;;;;;;;;;;4993537;28;20050;-78
2024/02/22 12:49:00;;;;;;;20.88;2.55;;;;;;;;;;4993592;28;20054;-77
2024/02/22 12:51:27;;;;;;;30.98;3.30;;;;;;;;;;4992625;28;20427;-78
2024/02/22 12:53:54;;;;;;;15.13;2.70;;;;;;;;;;4994090;28;20133;-77
2024/02/22 12:56:21;;;;;;;16.67;2.53;;;;;;;;;;4993290;28;20385;-76
2024/02/22 12:58:49;;;;;;;10.02;1.45;;;;;;;;;;4991732;28;20041;-78
2024/02/22 13:01:16;;;;;;;10.50;1.48;;;;;;;;;;4993346;28;20429;-78
2024/02/22 13:03:43;;;;;;;11.02;1.52;;;;;;;;;;4993463;28;20046;-77
2024/02/22 13:06:13;;;;;;;11.25;1.02;;;;;;;;;;4993360;28;20104;-78
2024/02/22 13:08:40;;;;;;;6.55;1.13;;;;;;;;;;4993762;28;20124;-78
2024/02/22 13:11:09;;;;;;;3.78;0.70;;;;;;;;;;4992895;28;20492;-78
2024/02/22 13:13:36;;;;;;;4.20;0.98;;;;;;;;;;4993757;28;20478;-78
2024/02/22 13:16:04;;;;;;;3.95;0.90;;;;;;;;;;4993789;28;20042;-78
2024/02/22 13:18:30;;;;;;;4.47;0.60;;;;;;;;;;4993558;28;20069;-77
2024/02/22 13:20:58;;;;;;;4.93;0.70;;;;;;;;;;4993791;28;20385;-77
2024/02/22 13:23:25;;;;;;;3.25;0.60;;;;;;;;;;4993112;28;20061;-77
2024/02/22 13:25:52;;;;;;;5.28;0.60;;;;;;;;;;4993265;28;20381;-78
2024/02/22 13:28:19;;;;;;;5.53;1.20;;;;;;;;;;4992984;28;20129;-78
2024/02/22 13:30:46;;;;;;;3.00;0.50;;;;;;;;;;4993420;28;20049;-78
2024/02/22 13:33:13;;;;;;;3.97;0.80;;;;;;;;;;4992851;28;20045;-78
2024/02/22 13:35:40;;;;;;;6.07;0.70;;;;;;;;;;4993173;28;20129;-78
2024/02/22 13:38:06;;;;;;;2.80;0.52;;;;;;;;;;4992920;28;20042;-78
2024/02/22 13:40:33;;;;;;;3.92;0.50;;;;;;;;;;4992155;28;20046;-77
2024/02/22 13:43:00;;;;;;;9.43;1.17;;;;;;;;;;4992728;28;20445;-77
2024/02/22 13:45:27;;;;;;;7.82;0.80;;;;;;;;;;4992450;28;20085;-77
2024/02/22 13:47:54;;;;;;;5.88;1.00;;;;;;;;;;4993184;28;20054;-78
2024/02/22 13:50:20;;;;;;;11.80;1.02;;;;;;;;;;4992816;28;20128;-78
2024/02/22 13:52:48;;;;;;;14.15;2.00;;;;;;;;;;4993320;28;20551;-77
2024/02/22 13:55:17;;;;;;;8.77;1.23;;;;;;;;;;4992818;28;20096;-77
2024/02/22 13:57:44;;;;;;;;;;;;;;;;;;4993711;28;20378;-78
2024/02/22 14:00:11;;;;;;;9.98;2.15;;;;;;;;;;4992505;28;19921;-77
2024/02/22 14:02:38;;;;;;;9.68;1.35;;;;;;;;;;4995629;28;20054;-77
2024/02/22 14:05:06;;;;;;;12.60;1.87;;;;;;;;;;4996198;28;20093;-77
2024/02/22 14:07:36;;;;;;;13.90;1.92;;;;;;;;;;4996874;28;20290;-78
2024/02/22 14:10:04;;;;;;;13.75;2.10;;;;;;;;;;4996610;28;20053;-77
2024/02/22 14:12:31;;;;;;;21.55;3.47;;;;;;;;;;4996555;28;20477;-78
2024/02/22 14:14:58;;;;;;;22.17;2.92;;;;;;;;;;4996781;28;20121;-77
2024/02/22 14:17:25;;;;;;;15.10;2.92;;;;;;;;;;4996000;28;20092;-77
2024/02/22 14:19:52;;;;;;;21.17;2.78;;;;;;;;;;4996834;28;20433;-77
2024/02/22 14:22:20;;;;;;;9.98;2.03;;;;;;;;;;4995852;28;20470;-78
2024/02/22 14:24:46;;;;;;;19.20;2.95;;;;;;;;;;4996574;28;20046;-77
2024/02/22 14:27:13;;;;;;;37.55;3.95;;;;;;;;;;4996117;28;20038;-77
2024/02/22 14:29:41;;;;;;;20.45;3.17;;;;;;;;;;4996418;28;20050;-77
2024/02/22 14:32:12;;;;;;;30.98;3.60;;;;;;;;;;4995425;28;20385;-77
2024/02/22 14:34:40;;;;;;;28.98;3.47;;;;;;;;;;4996333;28;20046;-78
2024/02/22 14:37:11;;;;;;;;;;;;;;;;;;4979206;28;20545;-78